createdAt,value
2019-03-12T00:00:22.362Z,66.72
2019-03-12T00:02:51.785Z,66.81
2019-03-12T00:05:21.286Z,67.02
2019-03-12T00:07:50.825Z,67.32
2019-03-12T00:10:20.227Z,67.43
2019-03-12T00:12:49.656Z,67.38
2019-03-12T00:15:19.201Z,67.59
2019-03-12T00:17:48.695Z,67.71
2019-03-12T00:20:18.110Z,67.80
2019-03-12T00:22:47.563Z,67.59
2019-03-12T00:25:16.984Z,67.75
2019-03-12T00:27:46.460Z,67.89
2019-03-12T00:30:17.016Z,67.80
2019-03-12T00:32:46.429Z,67.94
2019-03-12T00:35:15.903Z,68.13
2019-03-12T00:37:45.519Z,68.09
2019-03-12T00:40:15.126Z,68.17
2019-03-12T00:42:44.622Z,68.27
2019-03-12T00:45:14.475Z,68.61
2019-03-12T00:47:43.968Z,68.39
2019-03-12T00:50:14.742Z,68.54
2019-03-12T00:52:44.276Z,68.62
2019-03-12T00:55:13.971Z,68.64
2019-03-12T00:57:43.392Z,68.94
2019-03-12T01:00:14.746Z,68.97
2019-03-12T01:02:44.236Z,69.05
2019-03-12T01:05:13.759Z,68.90
2019-03-12T01:07:43.307Z,68.99
2019-03-12T01:10:14.517Z,68.79
2019-03-12T01:12:44.111Z,69.30
2019-03-12T01:15:14.141Z,69.12
2019-03-12T01:17:43.639Z,69.15
2019-03-12T01:20:13.580Z,69.52
2019-03-12T01:22:43.192Z,69.32
2019-03-12T01:25:12.826Z,69.26
2019-03-12T01:27:42.335Z,68.90
2019-03-12T01:30:14.467Z,68.56
2019-03-12T01:32:43.958Z,68.19
2019-03-12T01:35:13.574Z,68.56
2019-03-12T01:37:43.035Z,68.36
2019-03-12T01:40:13.631Z,68.49
2019-03-12T01:42:43.123Z,68.29
2019-03-12T01:45:14.031Z,68.04
2019-03-12T01:47:43.437Z,68.25
2019-03-12T01:50:13.117Z,68.20
2019-03-12T01:52:43.819Z,68.18
2019-03-12T01:55:13.396Z,67.97
2019-03-12T01:57:42.896Z,67.85
2019-03-12T02:00:14.940Z,67.69
2019-03-12T02:02:44.405Z,67.99
2019-03-12T02:05:14.230Z,67.48
2019-03-12T02:07:43.944Z,67.69
2019-03-12T02:10:13.479Z,66.34
2019-03-12T02:12:42.907Z,66.08
2019-03-12T02:15:12.827Z,65.82
2019-03-12T02:17:42.308Z,66.36
2019-03-12T02:20:15.708Z,66.37
2019-03-12T02:22:45.157Z,66.34
2019-03-12T02:25:16.573Z,66.35
2019-03-12T02:27:46.071Z,67.16
2019-03-12T02:30:16.843Z,67.48
2019-03-12T02:32:46.269Z,67.43
2019-03-12T02:35:16.067Z,67.08
2019-03-12T02:37:45.524Z,66.72
2019-03-12T02:40:16.025Z,66.61
2019-03-12T02:42:45.458Z,66.83
2019-03-12T02:45:15.490Z,66.47
2019-03-12T02:47:44.933Z,66.30
2019-03-12T02:50:14.553Z,66.42
2019-03-12T02:52:44.356Z,66.56
2019-03-12T02:55:14.251Z,66.71
2019-03-12T02:57:43.697Z,66.31
2019-03-12T03:00:20.741Z,66.45
2019-03-12T03:02:50.473Z,66.16
2019-03-12T03:05:19.936Z,66.09
2019-03-12T03:08:01.286Z,66.30
2019-03-12T03:10:30.920Z,66.04
2019-03-12T03:13:00.484Z,66.14
2019-03-12T03:15:35.743Z,66.14
2019-03-12T03:18:05.258Z,65.89
2019-03-12T03:20:34.608Z,66.13
2019-03-12T03:23:04.160Z,65.90
2019-03-12T03:25:33.665Z,65.71
2019-03-12T03:28:03.152Z,66.05
2019-03-12T03:30:32.713Z,65.34
2019-03-12T03:33:02.231Z,65.12
2019-03-12T03:35:31.714Z,64.86
2019-03-12T03:38:01.226Z,64.76
2019-03-12T03:40:30.731Z,64.50
2019-03-12T03:43:00.282Z,64.67
2019-03-12T03:45:29.836Z,64.97
2019-03-12T03:47:59.334Z,64.83
2019-03-12T03:50:28.871Z,65.29
2019-03-12T03:52:58.490Z,65.29
2019-03-12T03:55:27.986Z,64.94
2019-03-12T03:57:57.398Z,64.76
2019-03-12T04:00:27.103Z,64.62
2019-03-12T04:02:56.617Z,64.52
2019-03-12T04:05:25.995Z,64.69
2019-03-12T04:07:55.593Z,64.73
2019-03-12T04:10:25.103Z,64.29
2019-03-12T04:12:56.160Z,64.31
2019-03-12T04:15:25.981Z,64.20
2019-03-12T04:17:55.634Z,64.67
2019-03-12T04:20:25.206Z,64.33
2019-03-12T04:22:54.948Z,64.21
2019-03-12T04:25:24.405Z,64.22
2019-03-12T04:27:53.817Z,64.07
2019-03-12T04:30:23.394Z,64.28
2019-03-12T04:32:52.880Z,64.10
2019-03-12T04:35:22.923Z,64.25
2019-03-12T04:37:52.476Z,64.54
2019-03-12T04:40:21.909Z,64.63
2019-03-12T04:42:51.535Z,64.68
2019-03-12T04:45:21.086Z,65.03
2019-03-12T04:47:50.566Z,64.98
2019-03-12T04:50:20.054Z,64.64
2019-03-12T04:52:50.769Z,64.72
2019-03-12T04:55:20.319Z,64.32
2019-03-12T04:57:49.761Z,64.55
2019-03-12T05:00:19.358Z,64.67
2019-03-12T05:02:48.821Z,64.42
2019-03-12T05:05:18.445Z,64.51
2019-03-12T05:07:48.154Z,64.71
2019-03-12T05:10:17.580Z,64.56
2019-03-12T05:12:47.039Z,64.48
2019-03-12T05:15:16.579Z,64.30
2019-03-12T05:17:46.202Z,64.28
2019-03-12T05:20:16.461Z,64.16
2019-03-12T05:22:46.239Z,64.02
2019-03-12T05:25:15.759Z,63.73
2019-03-12T05:27:45.346Z,63.49
2019-03-12T05:30:16.616Z,63.35
2019-03-12T05:32:46.436Z,63.75
2019-03-12T05:35:15.861Z,63.20
2019-03-12T05:37:45.477Z,63.24
2019-03-12T05:40:15.183Z,62.79
2019-03-12T05:42:45.109Z,62.96
2019-03-12T05:45:14.737Z,63.13
2019-03-12T05:47:44.182Z,62.60
2019-03-12T05:50:13.994Z,62.78
2019-03-12T05:52:43.773Z,62.62
2019-03-12T05:55:14.453Z,62.90
2019-03-12T05:57:44.007Z,62.79
2019-03-12T06:00:14.917Z,62.77
2019-03-12T06:02:44.719Z,62.95
2019-03-12T06:05:14.316Z,62.96
2019-03-12T06:07:43.790Z,62.50
2019-03-12T06:10:13.712Z,62.40
2019-03-12T06:12:43.167Z,62.52
2019-03-12T06:15:13.386Z,62.29
2019-03-12T06:17:42.905Z,62.79
2019-03-12T06:20:12.537Z,62.42
2019-03-12T06:22:42.406Z,62.88
2019-03-12T06:25:12.622Z,63.02
2019-03-12T06:27:42.531Z,63.22
2019-03-12T06:30:12.689Z,63.54
2019-03-12T06:32:51.673Z,63.69
2019-03-12T06:35:39.103Z,63.88
2019-03-12T06:38:16.050Z,64.17
2019-03-12T06:40:56.767Z,64.70
2019-03-12T06:43:44.833Z,65.15
2019-03-12T06:46:30.481Z,65.21
2019-03-12T06:49:19.082Z,65.26
2019-03-12T06:52:19.664Z,65.67
2019-03-12T06:55:08.038Z,65.98
2019-03-12T06:58:16.888Z,66.13
2019-03-12T07:00:56.238Z,66.01
2019-03-12T07:03:48.277Z,66.14
2019-03-12T07:06:39.396Z,66.18
2019-03-12T07:09:37.480Z,65.59
2019-03-12T07:12:15.429Z,65.30
2019-03-12T07:14:53.796Z,66.05
2019-03-12T07:17:45.794Z,66.44
2019-03-12T07:20:25.604Z,65.91
2019-03-12T07:23:17.134Z,65.20
2019-03-12T07:26:00.021Z,65.23
2019-03-12T07:28:50.054Z,64.56
2019-03-12T07:31:46.714Z,64.55
2019-03-12T07:34:36.991Z,64.74
2019-03-12T07:37:21.241Z,64.68
2019-03-12T07:40:12.829Z,64.27
2019-03-12T07:42:52.116Z,63.79
2019-03-12T07:45:49.538Z,63.02
2019-03-12T07:48:44.227Z,62.58
2019-03-12T07:51:32.598Z,62.18
2019-03-12T07:54:32.216Z,61.99
2019-03-12T07:57:19.613Z,61.40
2019-03-12T08:03:28.190Z,60.65
2019-03-12T08:06:32.090Z,60.44
2019-03-12T08:09:29.664Z,60.10
2019-03-12T08:12:36.271Z,59.41
2019-03-12T08:15:32.396Z,58.77
2019-03-12T08:18:30.048Z,58.85
2019-03-12T08:21:30.420Z,58.37
2019-03-12T08:24:15.164Z,57.87
2019-03-12T08:27:03.586Z,57.19
2019-03-12T08:29:58.213Z,57.25
2019-03-12T08:32:39.234Z,57.05
2019-03-12T08:35:25.285Z,56.53
2019-03-12T08:38:08.959Z,56.83
2019-03-12T08:40:52.427Z,56.87
2019-03-12T08:43:42.490Z,57.28
2019-03-12T08:46:46.309Z,57.03
2019-03-12T08:49:34.872Z,57.03
2019-03-12T08:52:32.216Z,57.11
2019-03-12T08:55:14.726Z,57.09
2019-03-12T08:58:03.808Z,57.27
2019-03-12T09:00:57.781Z,56.89
2019-03-12T09:04:04.358Z,56.33
2019-03-12T09:06:51.556Z,56.56
2019-03-12T09:09:27.018Z,56.38
2019-03-12T09:12:01.632Z,56.10
2019-03-12T09:14:56.280Z,55.82
2019-03-12T09:17:39.048Z,55.59
2019-03-12T09:20:18.703Z,55.45
2019-03-12T09:23:10.215Z,55.02
2019-03-12T09:25:45.561Z,54.64
2019-03-12T09:28:24.481Z,54.30
2019-03-12T09:31:00.694Z,53.97
2019-03-12T09:33:52.190Z,53.88
2019-03-12T09:36:33.353Z,53.68
2019-03-12T09:39:21.815Z,52.89
2019-03-12T09:42:11.510Z,53.08
2019-03-12T09:45:12.214Z,53.30
2019-03-12T09:48:12.948Z,53.60
2019-03-12T09:51:10.535Z,53.03
2019-03-12T09:53:46.411Z,52.79
2019-03-12T09:56:36.100Z,52.69
2019-03-12T09:59:14.376Z,52.99
2019-03-12T10:02:02.753Z,52.83
2019-03-12T10:04:40.508Z,52.99
2019-03-12T10:07:24.540Z,52.79
2019-03-12T10:10:18.632Z,52.28
2019-03-12T10:13:06.051Z,52.27
2019-03-12T10:16:03.726Z,52.40
2019-03-12T10:18:54.648Z,52.34
2019-03-12T10:21:50.060Z,51.92
2019-03-12T10:24:34.803Z,51.87
2019-03-12T10:27:18.360Z,51.85
2019-03-12T10:30:00.501Z,51.41
2019-03-12T10:32:37.660Z,51.02
2019-03-12T10:35:28.977Z,51.08
2019-03-12T10:38:34.726Z,51.02
2019-03-12T10:45:01.829Z,51.28
2019-03-12T10:47:31.928Z,51.49
2019-03-12T10:50:01.464Z,51.53
2019-03-12T10:52:30.974Z,51.50
2019-03-12T10:55:12.520Z,51.27
2019-03-12T10:57:31.966Z,50.44
2019-03-12T11:00:01.488Z,50.26
2019-03-12T11:02:31.701Z,50.30
2019-03-12T11:05:01.107Z,50.52
2019-03-12T11:07:30.603Z,50.06
2019-03-12T11:10:00.073Z,50.18
2019-03-12T11:12:29.550Z,49.28
2019-03-12T11:14:59.644Z,48.85
2019-03-12T11:17:29.240Z,48.90
2019-03-12T11:23:03.923Z,49.34
2019-03-12T11:25:33.433Z,50.12
2019-03-12T11:28:02.907Z,51.37
2019-03-12T11:30:32.770Z,51.30
2019-03-12T11:33:02.215Z,52.18
2019-03-12T11:35:38.730Z,51.56
2019-03-12T11:38:02.940Z,51.88
2019-03-12T11:40:33.057Z,52.40
2019-03-12T11:43:02.823Z,52.38
2019-03-12T11:45:36.694Z,53.05
2019-03-12T11:48:03.947Z,54.37
2019-03-12T11:50:33.550Z,54.94
2019-03-12T11:53:03.351Z,56.10
2019-03-12T11:55:32.757Z,58.03
2019-03-12T11:58:02.245Z,58.91
2019-03-12T12:00:37.084Z,59.85
2019-03-12T12:03:06.840Z,60.26
2019-03-12T12:05:36.256Z,60.48
2019-03-12T12:08:05.834Z,60.37
2019-03-12T12:10:35.346Z,61.43
2019-03-12T12:13:04.990Z,62.05
2019-03-12T12:15:35.113Z,63.21
2019-03-12T12:18:04.816Z,63.35
2019-03-12T12:20:34.304Z,63.18
2019-03-12T12:23:03.875Z,62.60
2019-03-12T12:25:33.267Z,61.89
2019-03-12T12:28:02.666Z,62.04
2019-03-12T12:30:32.352Z,61.65
2019-03-12T12:33:01.830Z,61.01
2019-03-12T12:35:31.244Z,60.61
2019-03-12T12:38:00.734Z,60.21
2019-03-12T12:40:30.239Z,59.64
2019-03-12T12:42:59.708Z,59.74
2019-03-12T12:45:29.230Z,59.62
2019-03-12T12:47:58.764Z,59.42
2019-03-12T12:50:28.396Z,60.08
2019-03-12T12:52:58.125Z,60.20
2019-03-12T12:55:27.608Z,67.67
2019-03-12T12:57:57.030Z,72.61
2019-03-12T13:00:27.133Z,76.87
2019-03-12T13:02:56.612Z,82.01
2019-03-12T13:05:26.137Z,83.62
2019-03-12T13:07:55.857Z,87.90
2019-03-12T13:10:25.703Z,89.52
2019-03-12T13:12:55.142Z,90.12
2019-03-12T13:15:25.126Z,90.18
2019-03-12T13:17:56.870Z,89.96
2019-03-12T13:20:26.259Z,90.81
2019-03-12T13:22:55.759Z,91.90
2019-03-12T13:25:25.402Z,89.67
2019-03-12T13:27:54.894Z,89.79
2019-03-12T13:30:24.559Z,89.83
2019-03-12T13:32:53.968Z,89.49
2019-03-12T13:35:23.564Z,88.09
2019-03-12T13:37:53.256Z,85.17
2019-03-12T13:40:22.878Z,85.82
2019-03-12T13:42:52.446Z,85.10
2019-03-12T13:45:22.403Z,85.36
2019-03-12T13:47:51.838Z,85.45
2019-03-12T13:50:21.563Z,82.57
2019-03-12T13:52:51.210Z,82.14
2019-03-12T13:55:20.785Z,81.91
2019-03-12T13:57:50.764Z,81.87
2019-03-12T14:00:21.310Z,82.44
2019-03-12T14:02:50.949Z,82.75
2019-03-12T14:05:20.432Z,82.93
2019-03-12T14:07:49.932Z,84.06
2019-03-12T14:10:21.265Z,84.18
2019-03-12T14:12:51.501Z,84.08
2019-03-12T14:15:29.330Z,84.03
2019-03-12T14:17:58.857Z,83.25
2019-03-12T14:20:42.833Z,83.47
2019-03-12T14:23:14.160Z,83.76
2019-03-12T14:25:43.910Z,83.84
2019-03-12T14:28:13.549Z,84.17
2019-03-12T14:30:43.265Z,84.65
2019-03-12T14:33:12.876Z,86.57
2019-03-12T14:35:51.600Z,84.76
2019-03-12T14:38:13.752Z,86.55
2019-03-12T14:40:43.378Z,85.97
2019-03-12T14:43:12.928Z,85.97
2019-03-12T14:45:47.713Z,89.88
2019-03-12T14:48:52.467Z,91.20
2019-03-12T14:52:03.587Z,92.29
2019-03-12T14:54:33.237Z,94.19
2019-03-12T14:57:02.784Z,96.17
2019-03-12T14:59:32.316Z,95.54
2019-03-12T15:02:01.763Z,95.42
2019-03-12T15:04:31.211Z,95.35
2019-03-12T15:07:00.813Z,94.90
2019-03-12T15:09:30.271Z,95.63
2019-03-12T15:11:59.789Z,96.86
2019-03-12T15:14:29.365Z,97.26
2019-03-12T15:16:58.839Z,97.99
2019-03-12T15:19:28.240Z,96.96
2019-03-12T15:21:57.731Z,97.56
2019-03-12T15:24:27.451Z,98.46
2019-03-12T15:26:56.856Z,96.79
2019-03-12T15:29:26.309Z,97.09
2019-03-12T15:32:04.030Z,96.97
2019-03-12T15:34:27.244Z,97.19
2019-03-12T15:36:56.642Z,97.45
2019-03-12T15:39:26.123Z,97.40
2019-03-12T15:41:55.671Z,98.42
2019-03-12T15:44:25.179Z,97.61
2019-03-12T15:46:54.825Z,98.14
2019-03-12T15:49:24.378Z,99.01
2019-03-12T15:51:53.863Z,97.75
2019-03-12T15:54:23.323Z,96.68
2019-03-12T15:56:55.262Z,95.40
2019-03-12T15:59:24.790Z,95.53
2019-03-12T16:01:54.186Z,96.16
2019-03-12T16:04:23.652Z,96.06
2019-03-12T16:07:01.213Z,96.34
2019-03-12T16:09:24.408Z,95.86
2019-03-12T16:11:53.869Z,95.87
2019-03-12T16:14:23.304Z,95.63
2019-03-12T16:16:52.813Z,95.28
2019-03-12T16:19:22.355Z,95.27
2019-03-12T16:21:51.787Z,94.69
2019-03-12T16:24:21.227Z,93.57
2019-03-12T16:26:50.769Z,93.14
2019-03-12T16:29:20.280Z,92.36
2019-03-12T16:31:49.814Z,92.07
2019-03-12T16:34:19.346Z,92.71
2019-03-12T16:36:48.816Z,92.44
2019-03-12T16:39:18.251Z,91.63
2019-03-12T16:41:47.857Z,90.35
2019-03-12T16:44:17.395Z,89.26
2019-03-12T16:46:46.826Z,89.88
2019-03-12T16:49:16.294Z,89.27
2019-03-12T16:51:45.854Z,89.50
2019-03-12T16:54:15.369Z,89.34
2019-03-12T16:56:45.822Z,89.57
2019-03-12T16:59:15.485Z,89.24
2019-03-12T17:01:44.980Z,88.49
2019-03-12T17:04:14.725Z,88.26
2019-03-12T17:06:44.226Z,87.99
2019-03-12T17:09:13.797Z,88.02
2019-03-12T17:11:43.273Z,88.02
2019-03-12T17:14:12.707Z,87.61
2019-03-12T17:16:42.234Z,87.21
2019-03-12T17:19:11.793Z,87.43
2019-03-12T17:21:41.203Z,87.50
2019-03-12T17:24:10.640Z,87.36
2019-03-12T17:26:40.191Z,86.74
2019-03-12T17:29:09.680Z,86.53
2019-03-12T17:31:39.114Z,86.88
2019-03-12T17:34:08.787Z,86.84
2019-03-12T17:36:38.291Z,86.99
2019-03-12T17:39:08.604Z,86.58
2019-03-12T17:41:38.041Z,86.29
2019-03-12T17:44:07.494Z,85.72
2019-03-12T17:46:37.138Z,85.76
2019-03-12T17:49:06.669Z,85.80
2019-03-12T17:51:36.078Z,86.19
2019-03-12T17:54:05.600Z,86.18
2019-03-12T17:56:35.198Z,85.99
2019-03-12T17:59:04.732Z,86.37
2019-03-12T18:01:34.159Z,86.70
2019-03-12T18:04:03.587Z,87.10
2019-03-12T18:06:35.100Z,86.29
2019-03-12T18:09:08.576Z,86.90
2019-03-12T18:11:36.926Z,87.22
2019-03-12T18:14:06.340Z,88.05
2019-03-12T18:16:40.891Z,88.65
2019-03-12T18:19:07.137Z,89.80
2019-03-12T18:21:36.523Z,90.61
2019-03-12T18:24:06.027Z,90.69
2019-03-12T18:26:35.720Z,90.37
2019-03-12T18:29:05.258Z,91.63
2019-03-12T18:31:34.759Z,91.60
2019-03-12T18:34:04.291Z,92.69
2019-03-12T18:36:34.185Z,93.10
2019-03-12T18:39:03.799Z,93.48
2019-03-12T18:41:33.347Z,94.14
2019-03-12T18:44:03.237Z,94.19
2019-03-12T18:46:32.718Z,94.85
2019-03-12T18:49:02.659Z,94.53
2019-03-12T18:51:32.604Z,94.09
2019-03-12T18:54:02.384Z,94.21
2019-03-12T18:56:31.993Z,94.06
2019-03-12T18:59:01.420Z,93.39
2019-03-12T19:01:30.951Z,93.69
2019-03-12T19:04:00.526Z,93.15
2019-03-12T19:06:29.967Z,94.17
2019-03-12T19:08:59.469Z,94.85
2019-03-12T19:11:28.917Z,95.38
2019-03-12T19:13:58.334Z,95.61
2019-03-12T19:16:27.872Z,96.69
2019-03-12T19:18:57.659Z,95.77
2019-03-12T19:21:27.109Z,96.17
2019-03-12T19:23:56.539Z,97.30
2019-03-12T19:26:26.206Z,96.61
2019-03-12T19:28:55.717Z,96.43
2019-03-12T19:31:44.171Z,95.69
2019-03-12T19:34:17.351Z,95.72
2019-03-12T19:36:47.025Z,96.12
2019-03-12T19:39:19.046Z,96.24
2019-03-12T19:41:48.567Z,95.44
2019-03-12T19:44:18.329Z,95.77
2019-03-12T19:46:47.897Z,96.28
2019-03-12T19:49:17.330Z,96.54
2019-03-12T19:51:46.863Z,96.27
2019-03-12T19:54:17.875Z,95.77
2019-03-12T19:56:47.483Z,96.06
2019-03-12T19:59:22.785Z,96.80
2019-03-12T20:01:56.842Z,95.21
2019-03-12T20:04:26.411Z,95.56
2019-03-12T20:06:55.835Z,92.80
2019-03-12T20:10:09.337Z,92.69
2019-03-12T20:13:34.837Z,93.24
2019-03-12T20:17:12.539Z,92.63
2019-03-12T20:20:23.952Z,93.62
2019-03-12T20:23:25.494Z,94.65
2019-03-12T20:26:30.633Z,95.41
2019-03-12T20:29:54.660Z,96.15
2019-03-12T20:33:15.686Z,97.10
2019-03-12T20:36:28.240Z,98.85
2019-03-12T20:39:33.058Z,98.71
2019-03-12T20:42:38.473Z,99.70
2019-03-12T20:45:51.736Z,100.00
2019-03-12T20:48:51.121Z,100.00
2019-03-12T20:51:57.253Z,100.00
2019-03-12T20:55:07.646Z,100.00
2019-03-12T20:58:19.852Z,100.00
2019-03-12T21:01:33.450Z,100.00
2019-03-12T21:04:43.513Z,100.00
2019-03-12T21:07:49.649Z,100.00
2019-03-12T21:10:50.638Z,100.00
2019-03-12T21:14:19.222Z,100.00
2019-03-12T21:17:28.344Z,100.00
2019-03-12T21:20:35.646Z,100.00
2019-03-12T21:23:23.345Z,100.00
2019-03-12T21:26:16.668Z,100.00
2019-03-12T21:29:08.394Z,100.00
2019-03-12T21:31:37.947Z,100.00
2019-03-12T21:34:07.357Z,100.00
2019-03-12T21:36:36.793Z,100.00
2019-03-12T21:39:09.264Z,100.00
2019-03-12T21:41:38.811Z,100.00
2019-03-12T21:44:08.416Z,100.00
2019-03-12T21:46:38.066Z,100.00
2019-03-12T21:49:07.763Z,100.00
2019-03-12T21:51:37.289Z,100.00
2019-03-12T21:54:06.750Z,100.00
2019-03-12T21:56:36.201Z,100.00
2019-03-12T21:59:05.955Z,100.00
2019-03-12T22:01:35.592Z,100.00
2019-03-12T22:04:05.025Z,100.00
2019-03-12T22:06:34.818Z,100.00
2019-03-12T22:09:05.157Z,100.00
2019-03-12T22:11:34.633Z,100.00
2019-03-12T22:14:04.130Z,100.00
2019-03-12T22:16:33.545Z,100.00
2019-03-12T22:19:02.991Z,100.00
2019-03-12T22:21:47.876Z,100.00
2019-03-12T22:24:20.231Z,100.00
2019-03-12T22:26:49.654Z,100.00
2019-03-12T22:29:19.122Z,100.00
2019-03-12T22:31:48.627Z,100.00
2019-03-12T22:34:18.076Z,100.00
2019-03-12T22:36:47.694Z,100.00
2019-03-12T22:39:17.113Z,100.00
2019-03-12T22:41:46.534Z,100.00
2019-03-12T22:44:16.003Z,100.00
2019-03-12T22:46:45.427Z,100.00
2019-03-12T22:49:14.870Z,100.00
2019-03-12T22:51:44.345Z,100.00
2019-03-12T22:54:13.770Z,100.00
2019-03-12T22:56:43.241Z,100.00
2019-03-12T22:59:12.713Z,100.00
2019-03-12T23:01:42.189Z,100.00
2019-03-12T23:04:11.715Z,100.00
2019-03-12T23:06:41.470Z,100.00
2019-03-12T23:09:10.924Z,100.00
2019-03-12T23:11:40.484Z,100.00
2019-03-12T23:14:10.023Z,100.00
2019-03-12T23:16:39.504Z,100.00
2019-03-12T23:19:09.022Z,100.00
2019-03-12T23:21:38.448Z,100.00
2019-03-12T23:24:08.182Z,100.00
2019-03-12T23:26:37.668Z,100.00
2019-03-12T23:29:07.156Z,100.00
2019-03-12T23:31:36.627Z,100.00
2019-03-12T23:34:06.064Z,100.00
2019-03-12T23:36:35.509Z,100.00
2019-03-12T23:39:06.551Z,100.00
2019-03-12T23:41:36.079Z,100.00
2019-03-12T23:44:05.617Z,100.00
2019-03-12T23:46:35.251Z,100.00
2019-03-12T23:49:04.976Z,100.00
2019-03-12T23:51:34.607Z,100.00
2019-03-12T23:54:04.149Z,100.00
2019-03-12T23:56:33.635Z,100.00
2019-03-12T23:59:03.168Z,100.00
